sensor_id;sensor_type;location;lat;lon;timestamp;pressure;altitude;pressure_sealevel;temperature;humidity
6136;BME280;24008;42.664;23.372;2022-12-08T00:01:14;94572.41;;;3.18;100.00
6136;BME280;24008;42.664;23.372;2022-12-08T00:03:41;94498.97;;;2.70;100.00
6136;BME280;24008;42.664;23.372;2022-12-08T00:06:20;94568.78;;;3.09;100.00
6136;BME280;24008;42.664;23.372;2022-12-08T00:09:05;94570.06;;;2.89;100.00
6136;BME280;24008;42.664;23.372;2022-12-08T00:11:57;94486.38;;;2.31;100.00
6136;BME280;24008;42.664;23.372;2022-12-08T00:14:26;94573.56;;;2.74;100.00
6136;BME280;24008;42.664;23.372;2022-12-08T00:16:54;94604.09;;;2.97;100.00
6136;BME280;24008;42.664;23.372;2022-12-08T00:19:21;94601.59;;;2.97;100.00
6136;BME280;24008;42.664;23.372;2022-12-08T00:21:48;94579.44;;;2.75;100.00
6136;BME280;24008;42.664;23.372;2022-12-08T00:24:15;94604.09;;;2.97;100.00
6136;BME280;24008;42.664;23.372;2022-12-08T00:26:42;94624.13;;;3.00;100.00
6136;BME280;24008;42.664;23.372;2022-12-08T00:29:13;94612.78;;;2.93;100.00
6136;BME280;24008;42.664;23.372;2022-12-08T00:31:40;94459.56;;;1.90;100.00
6136;BME280;24008;42.664;23.372;2022-12-08T00:34:07;94605.28;;;2.91;100.00
6136;BME280;24008;42.664;23.372;2022-12-08T00:36:34;94602.69;;;2.93;100.00
6136;BME280;24008;42.664;23.372;2022-12-08T00:39:01;94364.72;;;1.35;100.00
6136;BME280;24008;42.664;23.372;2022-12-08T00:41:27;94621.16;;;2.93;100.00
6136;BME280;24008;42.664;23.372;2022-12-08T00:44:14;94194.13;;;0.33;100.00
6136;BME280;24008;42.664;23.372;2022-12-08T00:46:43;94677.00;;;2.88;100.00
6136;BME280;24008;42.664;23.372;2022-12-08T00:49:11;94615.50;;;2.89;100.00
6136;BME280;24008;42.664;23.372;2022-12-08T00:51:38;94607.94;;;2.89;100.00
6136;BME280;24008;42.664;23.372;2022-12-08T00:54:05;94467.84;;;1.92;100.00
6136;BME280;24008;42.664;23.372;2022-12-08T00:56:32;94627.50;;;2.86;100.00
6136;BME280;24008;42.664;23.372;2022-12-08T00:59:00;94495.78;;;2.02;100.00
6136;BME280;24008;42.664;23.372;2022-12-08T01:01:28;94615.34;;;2.78;100.00
6136;BME280;24008;42.664;23.372;2022-12-08T01:03:55;94618.69;;;2.79;100.00
6136;BME280;24008;42.664;23.372;2022-12-08T01:06:21;94601.84;;;2.79;100.00
6136;BME280;24008;42.664;23.372;2022-12-08T01:08:48;94622.25;;;2.76;100.00
6136;BME280;24008;42.664;23.372;2022-12-08T01:11:17;94401.69;;;1.35;100.00
6136;BME280;24008;42.664;23.372;2022-12-08T01:13:44;94490.72;;;1.75;100.00
6136;BME280;24008;42.664;23.372;2022-12-08T01:16:18;94616.72;;;2.57;100.00
6136;BME280;24008;42.664;23.372;2022-12-08T01:18:46;94613.38;;;2.57;100.00
6136;BME280;24008;42.664;23.372;2022-12-08T01:21:13;94611.28;;;2.63;100.00
6136;BME280;24008;42.664;23.372;2022-12-08T01:23:40;94618.56;;;2.68;100.00
6136;BME280;24008;42.664;23.372;2022-12-08T01:26:08;94627.84;;;2.67;100.00
6136;BME280;24008;42.664;23.372;2022-12-08T01:28:36;94611.88;;;2.67;100.00
6136;BME280;24008;42.664;23.372;2022-12-08T01:31:03;94607.66;;;2.67;100.00
6136;BME280;24008;42.664;23.372;2022-12-08T01:33:30;94299.63;;;0.76;100.00
6136;BME280;24008;42.664;23.372;2022-12-08T01:36:03;94512.28;;;2.20;100.00
6136;BME280;24008;42.664;23.372;2022-12-08T01:38:31;94603.44;;;2.80;100.00
6136;BME280;24008;42.664;23.372;2022-12-08T01:40:58;94361.59;;;1.32;100.00
6136;BME280;24008;42.664;23.372;2022-12-08T01:46:06;94592.53;;;2.80;100.00
6136;BME280;24008;42.664;23.372;2022-12-08T01:48:33;94510.91;;;2.29;100.00
6136;BME280;24008;42.664;23.372;2022-12-08T01:51:00;94553.97;;;2.65;100.00
6136;BME280;24008;42.664;23.372;2022-12-08T01:53:31;94576.16;;;3.00;100.00
6136;BME280;24008;42.664;23.372;2022-12-08T01:56:01;94576.25;;;3.11;100.00
6136;BME280;24008;42.664;23.372;2022-12-08T01:58:33;94482.91;;;2.59;100.00
6136;BME280;24008;42.664;23.372;2022-12-08T02:01:01;94457.44;;;2.36;100.00
6136;BME280;24008;42.664;23.372;2022-12-08T02:03:32;94558.88;;;3.06;100.00
6136;BME280;24008;42.664;23.372;2022-12-08T02:06:00;94588.53;;;2.90;100.00
6136;BME280;24008;42.664;23.372;2022-12-08T02:08:29;94559.16;;;3.14;100.00
6136;BME280;24008;42.664;23.372;2022-12-08T02:10:57;94512.81;;;2.77;100.00
6136;BME280;24008;42.664;23.372;2022-12-08T02:13:24;94421.72;;;2.17;100.00
6136;BME280;24008;42.664;23.372;2022-12-08T02:15:58;94333.19;;;1.57;100.00
6136;BME280;24008;42.664;23.372;2022-12-08T02:18:40;94286.94;;;1.18;100.00
6136;BME280;24008;42.664;23.372;2022-12-08T02:21:17;94575.00;;;2.91;100.00
6136;BME280;24008;42.664;23.372;2022-12-08T02:23:58;94579.25;;;2.90;100.00
6136;BME280;24008;42.664;23.372;2022-12-08T02:30:04;94573.88;;;2.82;100.00
6136;BME280;24008;42.664;23.372;2022-12-08T02:35:30;94413.03;;;1.81;100.00
6136;BME280;24008;42.664;23.372;2022-12-08T02:38:07;94395.56;;;1.66;100.00
6136;BME280;24008;42.664;23.372;2022-12-08T02:40:47;94448.25;;;1.96;100.00
6136;BME280;24008;42.664;23.372;2022-12-08T02:43:19;94324.97;;;1.14;100.00
6136;BME280;24008;42.664;23.372;2022-12-08T02:45:52;94582.22;;;2.70;100.00
6136;BME280;24008;42.664;23.372;2022-12-08T02:48:21;94558.81;;;2.68;100.00
6136;BME280;24008;42.664;23.372;2022-12-08T02:50:49;94485.94;;;2.51;100.00
6136;BME280;24008;42.664;23.372;2022-12-08T02:53:16;94557.84;;;2.96;100.00
6136;BME280;24008;42.664;23.372;2022-12-08T02:55:51;94529.63;;;2.51;100.00
6136;BME280;24008;42.664;23.372;2022-12-08T02:58:49;94565.69;;;2.79;100.00
6136;BME280;24008;42.664;23.372;2022-12-08T03:01:33;94444.25;;;1.93;100.00
6136;BME280;24008;42.664;23.372;2022-12-08T03:04:07;94568.13;;;2.80;100.00
6136;BME280;24008;42.664;23.372;2022-12-08T03:06:44;94570.16;;;2.75;100.00
6136;BME280;24008;42.664;23.372;2022-12-08T03:09:18;94444.31;;;1.79;100.00
6136;BME280;24008;42.664;23.372;2022-12-08T03:11:54;94570.72;;;2.66;100.00
6136;BME280;24008;42.664;23.372;2022-12-08T03:14:22;94449.38;;;1.92;100.00
6136;BME280;24008;42.664;23.372;2022-12-08T03:16:52;94600.81;;;2.69;100.00
6136;BME280;24008;42.664;23.372;2022-12-08T03:19:24;94482.91;;;2.19;100.00
6136;BME280;24008;42.664;23.372;2022-12-08T03:21:56;94564.66;;;2.69;100.00
6136;BME280;24008;42.664;23.372;2022-12-08T03:24:27;94567.09;;;2.70;100.00
6136;BME280;24008;42.664;23.372;2022-12-08T03:26:59;94550.53;;;2.66;100.00
6136;BME280;24008;42.664;23.372;2022-12-08T03:29:28;94557.72;;;2.72;100.00
6136;BME280;24008;42.664;23.372;2022-12-08T03:31:58;94537.78;;;2.55;100.00
6136;BME280;24008;42.664;23.372;2022-12-08T03:34:28;94399.72;;;1.67;100.00
6136;BME280;24008;42.664;23.372;2022-12-08T03:36:59;94557.44;;;2.77;100.00
6136;BME280;24008;42.664;23.372;2022-12-08T03:39:26;94562.75;;;2.72;100.00
6136;BME280;24008;42.664;23.372;2022-12-08T03:41:53;94476.66;;;2.12;100.00
6136;BME280;24008;42.664;23.372;2022-12-08T03:44:20;94443.75;;;1.74;100.00
6136;BME280;24008;42.664;23.372;2022-12-08T03:46:47;94505.56;;;2.06;100.00
6136;BME280;24008;42.664;23.372;2022-12-08T03:49:13;94564.81;;;2.40;100.00
6136;BME280;24008;42.664;23.372;2022-12-08T03:51:40;94572.47;;;2.39;100.00
6136;BME280;24008;42.664;23.372;2022-12-08T03:54:08;94483.50;;;1.83;100.00
6136;BME280;24008;42.664;23.372;2022-12-08T03:56:37;94416.19;;;1.31;100.00
6136;BME280;24008;42.664;23.372;2022-12-08T03:59:04;94491.63;;;1.74;100.00
6136;BME280;24008;42.664;23.372;2022-12-08T04:01:32;94386.09;;;1.16;100.00
6136;BME280;24008;42.664;23.372;2022-12-08T04:03:59;94445.13;;;1.24;100.00
6136;BME280;24008;42.664;23.372;2022-12-08T04:06:26;94481.38;;;1.77;100.00
6136;BME280;24008;42.664;23.372;2022-12-08T04:08:53;94569.69;;;2.56;100.00
6136;BME280;24008;42.664;23.372;2022-12-08T04:11:21;94500.97;;;2.13;100.00
6136;BME280;24008;42.664;23.372;2022-12-08T04:13:48;94336.22;;;1.08;100.00
6136;BME280;24008;42.664;23.372;2022-12-08T04:16:17;94590.41;;;2.61;100.00
6136;BME280;24008;42.664;23.372;2022-12-08T04:18:44;94567.72;;;2.74;100.00
6136;BME280;24008;42.664;23.372;2022-12-08T04:21:12;94579.66;;;2.84;100.00
6136;BME280;24008;42.664;23.372;2022-12-08T04:23:38;94582.69;;;2.89;100.00
6136;BME280;24008;42.664;23.372;2022-12-08T04:26:06;94409.25;;;1.62;100.00
6136;BME280;24008;42.664;23.372;2022-12-08T04:28:34;94593.31;;;2.68;100.00
6136;BME280;24008;42.664;23.372;2022-12-08T04:31:01;94508.03;;;2.21;100.00
6136;BME280;24008;42.664;23.372;2022-12-08T04:33:28;94567.16;;;2.56;100.00
6136;BME280;24008;42.664;23.372;2022-12-08T04:35:55;94588.25;;;2.55;100.00
6136;BME280;24008;42.664;23.372;2022-12-08T04:38:22;94571.47;;;2.41;100.00
6136;BME280;24008;42.664;23.372;2022-12-08T04:40:49;94591.88;;;2.51;100.00
6136;BME280;24008;42.664;23.372;2022-12-08T04:43:15;94580.44;;;2.45;100.00
6136;BME280;24008;42.664;23.372;2022-12-08T04:45:44;94590.44;;;2.47;100.00
6136;BME280;24008;42.664;23.372;2022-12-08T04:48:10;94590.06;;;2.53;100.00
6136;BME280;24008;42.664;23.372;2022-12-08T04:50:38;94540.81;;;2.21;100.00
6136;BME280;24008;42.664;23.372;2022-12-08T04:53:06;94596.66;;;2.68;100.00
6136;BME280;24008;42.664;23.372;2022-12-08T04:55:34;94498.84;;;2.20;100.00
6136;BME280;24008;42.664;23.372;2022-12-08T04:58:03;94383.97;;;1.36;100.00
6136;BME280;24008;42.664;23.372;2022-12-08T05:00:30;94506.00;;;2.40;100.00
6136;BME280;24008;42.664;23.372;2022-12-08T05:02:58;94337.25;;;1.32;100.00
6136;BME280;24008;42.664;23.372;2022-12-08T05:05:25;94590.38;;;3.01;100.00
6136;BME280;24008;42.664;23.372;2022-12-08T05:07:52;94594.22;;;3.06;100.00
6136;BME280;24008;42.664;23.372;2022-12-08T05:10:18;94470.72;;;2.13;100.00
6136;BME280;24008;42.664;23.372;2022-12-08T05:12:45;94426.94;;;2.01;100.00
6136;BME280;24008;42.664;23.372;2022-12-08T05:15:12;94409.97;;;1.91;100.00
6136;BME280;24008;42.664;23.372;2022-12-08T05:17:39;94585.63;;;3.09;100.00
6136;BME280;24008;42.664;23.372;2022-12-08T05:20:08;94604.75;;;3.13;100.00
6136;BME280;24008;42.664;23.372;2022-12-08T05:22:35;94372.00;;;1.67;100.00
6136;BME280;24008;42.664;23.372;2022-12-08T05:25:02;94440.25;;;2.03;100.00
6136;BME280;24008;42.664;23.372;2022-12-08T05:27:29;94439.72;;;1.98;100.00
6136;BME280;24008;42.664;23.372;2022-12-08T05:29:56;94620.06;;;2.97;100.00
6136;BME280;24008;42.664;23.372;2022-12-08T05:32:23;94109.97;;;-0.44;100.00
6136;BME280;24008;42.664;23.372;2022-12-08T05:34:49;94614.53;;;2.65;100.00
6136;BME280;24008;42.664;23.372;2022-12-08T05:37:18;94684.81;;;2.57;100.00
6136;BME280;24008;42.664;23.372;2022-12-08T05:39:44;94574.28;;;1.96;100.00
6136;BME280;24008;42.664;23.372;2022-12-08T05:42:11;94624.13;;;2.46;100.00
6136;BME280;24008;42.664;23.372;2022-12-08T05:44:38;94618.91;;;2.49;100.00
6136;BME280;24008;42.664;23.372;2022-12-08T05:47:05;94623.88;;;2.50;100.00
6136;BME280;24008;42.664;23.372;2022-12-08T05:49:31;94632.44;;;2.48;100.00
6136;BME280;24008;42.664;23.372;2022-12-08T05:51:58;94628.09;;;2.50;100.00
6136;BME280;24008;42.664;23.372;2022-12-08T05:54:26;94623.56;;;2.55;100.00
6136;BME280;24008;42.664;23.372;2022-12-08T05:56:53;94597.47;;;2.42;100.00
6136;BME280;24008;42.664;23.372;2022-12-08T05:59:20;94510.84;;;1.89;100.00
6136;BME280;24008;42.664;23.372;2022-12-08T06:01:47;94622.09;;;2.65;100.00
6136;BME280;24008;42.664;23.372;2022-12-08T06:04:13;94631.28;;;2.66;100.00
6136;BME280;24008;42.664;23.372;2022-12-08T06:06:40;94633.78;;;2.66;100.00
6136;BME280;24008;42.664;23.372;2022-12-08T06:09:07;94622.78;;;2.67;100.00
6136;BME280;24008;42.664;23.372;2022-12-08T06:11:35;94623.81;;;2.65;100.00
6136;BME280;24008;42.664;23.372;2022-12-08T06:14:02;94634.31;;;2.71;100.00
6136;BME280;24008;42.664;23.372;2022-12-08T06:16:29;94633.25;;;2.75;100.00
6136;BME280;24008;42.664;23.372;2022-12-08T06:18:56;94664.94;;;2.79;100.00
6136;BME280;24008;42.664;23.372;2022-12-08T06:21:23;94646.25;;;2.82;100.00
6136;BME280;24008;42.664;23.372;2022-12-08T06:23:52;94573.06;;;2.42;100.00
6136;BME280;24008;42.664;23.372;2022-12-08T06:26:19;94556.13;;;2.17;100.00
6136;BME280;24008;42.664;23.372;2022-12-08T06:28:49;94677.31;;;2.97;100.00
6136;BME280;24008;42.664;23.372;2022-12-08T06:31:17;94654.00;;;3.06;100.00
6136;BME280;24008;42.664;23.372;2022-12-08T06:33:45;94644.94;;;3.16;100.00
6136;BME280;24008;42.664;23.372;2022-12-08T06:36:13;94647.16;;;3.20;100.00
6136;BME280;24008;42.664;23.372;2022-12-08T06:38:41;94629.78;;;3.16;100.00
6136;BME280;24008;42.664;23.372;2022-12-08T06:41:08;94536.66;;;2.86;100.00
6136;BME280;24008;42.664;23.372;2022-12-08T06:43:35;94643.50;;;4.13;100.00
6136;BME280;24008;42.664;23.372;2022-12-08T06:46:05;94640.03;;;4.87;100.00
6136;BME280;24008;42.664;23.372;2022-12-08T06:48:32;94645.16;;;5.44;100.00
6136;BME280;24008;42.664;23.372;2022-12-08T06:51:05;94625.53;;;5.93;100.00
6136;BME280;24008;42.664;23.372;2022-12-08T06:53:32;94611.91;;;6.16;99.68
6136;BME280;24008;42.664;23.372;2022-12-08T06:55:59;94630.09;;;6.55;93.36
6136;BME280;24008;42.664;23.372;2022-12-08T06:58:26;94625.56;;;7.01;90.94
6136;BME280;24008;42.664;23.372;2022-12-08T07:00:52;94633.75;;;7.26;87.33
6136;BME280;24008;42.664;23.372;2022-12-08T07:03:21;94605.31;;;7.32;85.13
6136;BME280;24008;42.664;23.372;2022-12-08T07:05:47;94605.75;;;7.88;83.76
6136;BME280;24008;42.664;23.372;2022-12-08T07:08:14;94570.22;;;8.07;80.11
6136;BME280;24008;42.664;23.372;2022-12-08T07:10:41;94562.63;;;7.56;77.73
6136;BME280;24008;42.664;23.372;2022-12-08T07:13:08;94661.38;;;7.30;79.06
6136;BME280;24008;42.664;23.372;2022-12-08T07:15:34;94658.69;;;6.68;81.89
6136;BME280;24008;42.664;23.372;2022-12-08T07:18:01;94661.50;;;6.31;84.49
6136;BME280;24008;42.664;23.372;2022-12-08T07:20:29;94691.63;;;6.02;86.59
6136;BME280;24008;42.664;23.372;2022-12-08T07:22:56;94654.56;;;5.66;88.77
6136;BME280;24008;42.664;23.372;2022-12-08T07:25:22;94555.34;;;4.91;90.35
6136;BME280;24008;42.664;23.372;2022-12-08T07:27:49;94671.41;;;5.43;91.55
6136;BME280;24008;42.664;23.372;2022-12-08T07:30:18;94674.72;;;5.33;92.92
6136;BME280;24008;42.664;23.372;2022-12-08T07:32:45;94682.13;;;5.36;93.58
6136;BME280;24008;42.664;23.372;2022-12-08T07:35:12;94690.19;;;5.30;94.68
6136;BME280;24008;42.664;23.372;2022-12-08T07:37:40;94663.59;;;5.12;94.69
6136;BME280;24008;42.664;23.372;2022-12-08T07:40:08;94529.13;;;4.33;95.61
6136;BME280;24008;42.664;23.372;2022-12-08T07:42:35;94638.72;;;5.05;95.63
6136;BME280;24008;42.664;23.372;2022-12-08T07:45:02;94587.31;;;4.57;96.55
6136;BME280;24008;42.664;23.372;2022-12-08T07:47:29;94693.69;;;5.16;96.66
6136;BME280;24008;42.664;23.372;2022-12-08T07:49:55;94594.56;;;4.62;96.93
6136;BME280;24008;42.664;23.372;2022-12-08T07:52:22;94683.66;;;5.15;97.03
6136;BME280;24008;42.664;23.372;2022-12-08T07:54:50;94623.28;;;4.74;97.32
6136;BME280;24008;42.664;23.372;2022-12-08T07:57:17;94682.06;;;5.14;97.78
6136;BME280;24008;42.664;23.372;2022-12-08T07:59:44;94675.41;;;5.24;98.69
6136;BME280;24008;42.664;23.372;2022-12-08T08:02:15;94672.66;;;5.27;98.55
6136;BME280;24008;42.664;23.372;2022-12-08T08:04:42;94647.81;;;5.08;99.10
6136;BME280;24008;42.664;23.372;2022-12-08T08:07:09;94592.63;;;4.89;98.86
6136;BME280;24008;42.664;23.372;2022-12-08T08:09:36;94676.75;;;5.52;98.88
6136;BME280;24008;42.664;23.372;2022-12-08T08:12:04;94627.25;;;5.24;98.19
6136;BME280;24008;42.664;23.372;2022-12-08T08:14:31;94604.69;;;5.32;97.74
6136;BME280;24008;42.664;23.372;2022-12-08T08:16:58;94674.16;;;5.87;96.67
6136;BME280;24008;42.664;23.372;2022-12-08T08:19:24;94682.63;;;5.98;95.58
6136;BME280;24008;42.664;23.372;2022-12-08T08:21:51;94681.94;;;6.07;94.61
6136;BME280;24008;42.664;23.372;2022-12-08T08:24:18;94681.50;;;6.25;94.19
6136;BME280;24008;42.664;23.372;2022-12-08T08:26:45;94682.38;;;6.46;93.77
6136;BME280;24008;42.664;23.372;2022-12-08T08:29:13;94692.31;;;6.60;92.66
6136;BME280;24008;42.664;23.372;2022-12-08T08:31:40;94585.19;;;6.12;91.43
6136;BME280;24008;42.664;23.372;2022-12-08T08:34:07;94689.38;;;6.87;90.50
6136;BME280;24008;42.664;23.372;2022-12-08T08:36:34;94681.25;;;6.93;89.80
6136;BME280;24008;42.664;23.372;2022-12-08T08:39:01;94594.13;;;6.49;89.10
6136;BME280;24008;42.664;23.372;2022-12-08T08:41:27;94639.72;;;6.83;87.50
6136;BME280;24008;42.664;23.372;2022-12-08T08:43:54;94632.56;;;6.88;86.84
6136;BME280;24008;42.664;23.372;2022-12-08T08:46:22;94458.38;;;5.90;86.48
6136;BME280;24008;42.664;23.372;2022-12-08T08:48:53;94683.78;;;7.57;86.13
6136;BME280;24008;42.664;23.372;2022-12-08T08:51:20;94672.50;;;8.62;84.74
6136;BME280;24008;42.664;23.372;2022-12-08T08:53:47;94627.22;;;9.33;79.42
6136;BME280;24008;42.664;23.372;2022-12-08T08:56:15;94678.34;;;10.36;74.61
6136;BME280;24008;42.664;23.372;2022-12-08T08:58:45;94550.75;;;10.52;70.65
6136;BME280;24008;42.664;23.372;2022-12-08T09:01:14;94636.22;;;12.00;67.33
6136;BME280;24008;42.664;23.372;2022-12-08T09:03:43;94633.66;;;12.68;63.43
6136;BME280;24008;42.664;23.372;2022-12-08T09:06:10;94580.63;;;12.84;61.12
6136;BME280;24008;42.664;23.372;2022-12-08T09:08:36;94624.63;;;13.87;57.89
6136;BME280;24008;42.664;23.372;2022-12-08T09:11:03;94649.41;;;14.82;54.92
6136;BME280;24008;42.664;23.372;2022-12-08T09:13:30;94540.00;;;14.63;51.77
6136;BME280;24008;42.664;23.372;2022-12-08T09:15:59;94629.59;;;15.13;51.35
6136;BME280;24008;42.664;23.372;2022-12-08T09:18:25;94595.03;;;14.85;51.67
6136;BME280;24008;42.664;23.372;2022-12-08T09:20:54;94635.94;;;15.57;51.25
6136;BME280;24008;42.664;23.372;2022-12-08T09:23:21;94629.34;;;15.92;48.87
6136;BME280;24008;42.664;23.372;2022-12-08T09:25:48;94627.16;;;15.66;49.53
6136;BME280;24008;42.664;23.372;2022-12-08T09:28:15;94545.22;;;14.78;49.99
6136;BME280;24008;42.664;23.372;2022-12-08T09:30:41;94626.44;;;15.26;50.05
6136;BME280;24008;42.664;23.372;2022-12-08T09:33:08;94445.63;;;14.10;49.42
6136;BME280;24008;42.664;23.372;2022-12-08T09:35:35;94610.31;;;15.32;49.66
6136;BME280;24008;42.664;23.372;2022-12-08T09:38:03;94589.34;;;15.21;49.36
6136;BME280;24008;42.664;23.372;2022-12-08T09:40:32;94626.44;;;15.57;49.51
6136;BME280;24008;42.664;23.372;2022-12-08T09:43:09;94620.44;;;15.34;49.26
6136;BME280;24008;42.664;23.372;2022-12-08T09:45:39;94611.47;;;14.76;50.72
6136;BME280;24008;42.664;23.372;2022-12-08T09:48:09;94601.03;;;14.30;51.67
6136;BME280;24008;42.664;23.372;2022-12-08T09:50:40;94628.09;;;14.02;51.98
6136;BME280;24008;42.664;23.372;2022-12-08T09:53:14;94630.59;;;13.47;54.07
6136;BME280;24008;42.664;23.372;2022-12-08T09:55:46;94623.69;;;13.47;53.98
6136;BME280;24008;42.664;23.372;2022-12-08T09:58:19;94510.72;;;12.82;54.22
6136;BME280;24008;42.664;23.372;2022-12-08T10:00:47;94612.63;;;13.39;54.24
6136;BME280;24008;42.664;23.372;2022-12-08T10:03:14;94593.31;;;13.02;55.28
6136;BME280;24008;42.664;23.372;2022-12-08T10:05:45;94329.44;;;11.19;55.53
6136;BME280;24008;42.664;23.372;2022-12-08T10:08:18;94477.25;;;11.93;56.50
6136;BME280;24008;42.664;23.372;2022-12-08T10:10:47;94589.84;;;12.53;57.38
6136;BME280;24008;42.664;23.372;2022-12-08T10:13:26;94556.75;;;12.25;58.00
6136;BME280;24008;42.664;23.372;2022-12-08T10:16:07;94335.81;;;10.55;58.79
6136;BME280;24008;42.664;23.372;2022-12-08T10:18:37;94584.81;;;11.93;60.08
6136;BME280;24008;42.664;23.372;2022-12-08T10:21:13;94522.81;;;11.30;60.62
6136;BME280;24008;42.664;23.372;2022-12-08T10:23:45;94570.00;;;11.35;61.47
6136;BME280;24008;42.664;23.372;2022-12-08T10:26:15;94554.88;;;10.80;62.75
6136;BME280;24008;42.664;23.372;2022-12-08T10:28:43;94582.97;;;10.63;64.68
6136;BME280;24008;42.664;23.372;2022-12-08T10:31:17;94522.69;;;9.97;65.98
6136;BME280;24008;42.664;23.372;2022-12-08T10:33:46;94579.88;;;10.04;67.11
6136;BME280;24008;42.664;23.372;2022-12-08T10:36:13;94555.63;;;9.91;67.38
6136;BME280;24008;42.664;23.372;2022-12-08T10:38:41;94535.28;;;9.71;67.58
6136;BME280;24008;42.664;23.372;2022-12-08T10:41:12;94552.44;;;9.79;67.79
6136;BME280;24008;42.664;23.372;2022-12-08T10:43:43;94462.81;;;9.27;68.84
6136;BME280;24008;42.664;23.372;2022-12-08T10:46:14;94567.94;;;10.05;68.77
6136;BME280;24008;42.664;23.372;2022-12-08T10:48:50;94564.28;;;10.07;69.04
6136;BME280;24008;42.664;23.372;2022-12-08T10:51:27;94528.84;;;9.77;69.20
6136;BME280;24008;42.664;23.372;2022-12-08T10:53:56;94525.94;;;9.62;69.40
6136;BME280;24008;42.664;23.372;2022-12-08T10:56:25;94555.47;;;9.65;70.30
6136;BME280;24008;42.664;23.372;2022-12-08T10:59:05;94553.91;;;9.45;70.45
6136;BME280;24008;42.664;23.372;2022-12-08T11:01:35;94548.03;;;9.34;71.47
6136;BME280;24008;42.664;23.372;2022-12-08T11:04:09;94551.25;;;9.36;72.05
6136;BME280;24008;42.664;23.372;2022-12-08T11:06:38;94537.25;;;9.50;72.27
6136;BME280;24008;42.664;23.372;2022-12-08T11:09:24;94512.94;;;9.46;71.38
6136;BME280;24008;42.664;23.372;2022-12-08T11:11:56;94535.50;;;9.51;71.77
6136;BME280;24008;42.664;23.372;2022-12-08T11:14:26;94501.03;;;9.37;72.33
6136;BME280;24008;42.664;23.372;2022-12-08T11:16:54;94537.16;;;9.69;72.09
6136;BME280;24008;42.664;23.372;2022-12-08T11:19:25;94524.22;;;9.81;71.32
6136;BME280;24008;42.664;23.372;2022-12-08T11:21:52;94434.78;;;9.27;71.17
6136;BME280;24008;42.664;23.372;2022-12-08T11:24:23;94480.03;;;9.80;70.93
6136;BME280;24008;42.664;23.372;2022-12-08T11:26:52;94505.81;;;10.14;70.80
6136;BME280;24008;42.664;23.372;2022-12-08T11:29:20;94506.13;;;10.29;69.62
6136;BME280;24008;42.664;23.372;2022-12-08T11:31:51;94507.06;;;10.28;69.68
6136;BME280;24008;42.664;23.372;2022-12-08T11:34:24;94478.69;;;10.03;69.45
6136;BME280;24008;42.664;23.372;2022-12-08T11:36:54;94504.22;;;10.03;70.45
6136;BME280;24008;42.664;23.372;2022-12-08T11:39:25;94529.25;;;10.00;70.72
6136;BME280;24008;42.664;23.372;2022-12-08T11:41:55;94508.13;;;10.07;71.61
6136;BME280;24008;42.664;23.372;2022-12-08T11:44:27;94499.59;;;10.17;70.88
6136;BME280;24008;42.664;23.372;2022-12-08T11:46:58;94450.94;;;10.00;70.97
6136;BME280;24008;42.664;23.372;2022-12-08T11:49:32;94396.47;;;9.82;70.29
6136;BME280;24008;42.664;23.372;2022-12-08T11:52:02;94421.19;;;10.27;69.88
6136;BME280;24008;42.664;23.372;2022-12-08T11:54:34;94438.56;;;10.41;68.94
6136;BME280;24008;42.664;23.372;2022-12-08T11:57:09;94082.03;;;8.20;68.18
6136;BME280;24008;42.664;23.372;2022-12-08T11:59:43;94485.25;;;10.87;68.91
6136;BME280;24008;42.664;23.372;2022-12-08T12:02:13;94480.50;;;10.92;68.05
6136;BME280;24008;42.664;23.372;2022-12-08T12:04:44;94460.22;;;10.72;68.38
6136;BME280;24008;42.664;23.372;2022-12-08T12:07:29;94480.50;;;10.92;69.11
6136;BME280;24008;42.664;23.372;2022-12-08T12:10:11;94478.34;;;11.05;68.82
6136;BME280;24008;42.664;23.372;2022-12-08T12:12:55;94457.69;;;10.98;67.72
6136;BME280;24008;42.664;23.372;2022-12-08T12:15:40;94480.91;;;11.05;67.73
6136;BME280;24008;42.664;23.372;2022-12-08T12:18:22;94433.41;;;10.76;68.36
6136;BME280;24008;42.664;23.372;2022-12-08T12:20:52;94175.22;;;9.21;68.38
6136;BME280;24008;42.664;23.372;2022-12-08T12:23:23;94468.47;;;11.10;67.99
6136;BME280;24008;42.664;23.372;2022-12-08T12:25:57;94480.00;;;11.14;68.08
6136;BME280;24008;42.664;23.372;2022-12-08T12:28:38;94476.63;;;11.13;68.27
6136;BME280;24008;42.664;23.372;2022-12-08T12:31:08;94433.81;;;10.90;67.78
6136;BME280;24008;42.664;23.372;2022-12-08T12:33:36;94461.16;;;11.15;67.84
6136;BME280;24008;42.664;23.372;2022-12-08T12:36:06;94430.72;;;11.04;67.56
6136;BME280;24008;42.664;23.372;2022-12-08T12:38:35;94461.53;;;11.28;67.42
6136;BME280;24008;42.664;23.372;2022-12-08T12:41:24;94462.91;;;11.40;67.23
6136;BME280;24008;42.664;23.372;2022-12-08T12:44:21;94458.44;;;11.42;66.62
6136;BME280;24008;42.664;23.372;2022-12-08T12:46:54;94457.00;;;11.48;66.46
6136;BME280;24008;42.664;23.372;2022-12-08T12:49:51;94461.31;;;11.47;66.94
6136;BME280;24008;42.664;23.372;2022-12-08T12:52:41;94439.88;;;11.40;66.86
6136;BME280;24008;42.664;23.372;2022-12-08T13:04:31;94440.09;;;11.21;68.17
6136;BME280;24008;42.664;23.372;2022-12-08T13:06:58;94446.00;;;11.22;68.30
6136;BME280;24008;42.664;23.372;2022-12-08T13:09:31;94448.66;;;11.12;68.14
6136;BME280;24008;42.664;23.372;2022-12-08T13:12:00;94455.34;;;11.05;68.62
6136;BME280;24008;42.664;23.372;2022-12-08T13:14:35;94421.19;;;10.88;68.36
6136;BME280;24008;42.664;23.372;2022-12-08T13:17:06;94417.81;;;10.88;68.37
6136;BME280;24008;42.664;23.372;2022-12-08T13:19:39;94429.41;;;11.00;68.67
6136;BME280;24008;42.664;23.372;2022-12-08T13:28:25;94441.09;;;11.02;69.19
6136;BME280;24008;42.664;23.372;2022-12-08T13:30:55;94442.19;;;11.00;69.49
6136;BME280;24008;42.664;23.372;2022-12-08T13:33:25;94443.16;;;10.99;70.16
6136;BME280;24008;42.664;23.372;2022-12-08T13:36:00;94437.72;;;11.02;70.16
6136;BME280;24008;42.664;23.372;2022-12-08T13:38:30;94399.97;;;10.70;69.73
6136;BME280;24008;42.664;23.372;2022-12-08T13:41:00;94379.91;;;10.57;70.25